Time;durP1;ratioP1;P1;durP2;ratioP2;P2;SDS_P1;SDS_P2;PMS_P1;PMS_P2;Temp;Humidity;BMP_temperature;BMP_pressure;BME280_temperature;BME280_humidity;BME280_pressure;Samples;Min_cycle;Max_cycle;Signal;HPM_P1;HPM_P2
2023/07/28 00:00:25;;;;;;;1.90;1.33;;;20.80;83.60;;;;;;5054325;28;20092;-32
2023/07/28 00:02:52;;;;;;;1.40;1.20;;;19.40;75.70;;;;;;5053969;28;20053;-32
2023/07/28 00:05:19;;;;;;;1.33;1.20;;;;;;;;;;5054125;28;20140;-36
2023/07/28 00:07:46;;;;;;;1.50;1.20;;;20.00;76.50;;;;;;5053947;28;20129;-32
2023/07/28 00:10:14;;;;;;;1.55;1.33;;;20.40;83.40;;;;;;5054158;28;20171;-33
2023/07/28 00:12:41;;;;;;;1.60;1.40;;;20.30;83.90;;;;;;5053973;28;20133;-32
2023/07/28 00:15:08;;;;;;;1.85;1.30;;;;;;;;;;5054082;28;20049;-35
2023/07/28 00:17:35;;;;;;;1.30;1.20;;;;;;;;;;5053983;28;20053;-33
2023/07/28 00:20:02;;;;;;;1.52;1.30;;;;;;;;;;5053490;28;20729;-35
2023/07/28 00:22:29;;;;;;;1.48;1.27;;;;;;;;;;5053477;28;20128;-34
2023/07/28 00:24:56;;;;;;;1.83;1.45;;;20.60;74.10;;;;;;5053755;28;20132;-32
2023/07/28 00:27:24;;;;;;;3.40;1.30;;;19.30;71.20;;;;;;5053476;28;20586;-32
2023/07/28 00:29:51;;;;;;;1.80;1.40;;;;;;;;;;5053600;28;20128;-33
2023/07/28 00:32:18;;;;;;;2.17;1.48;;;;;;;;;;5055540;28;20579;-35
2023/07/28 00:34:45;;;;;;;2.55;1.35;;;20.60;73.10;;;;;;5053497;28;20769;-32
2023/07/28 00:37:12;;;;;;;1.95;1.25;;;;;;;;;;5064395;28;20409;-35
2023/07/28 00:39:39;;;;;;;1.88;1.58;;;;;;;;;;5073438;28;20426;-32
2023/07/28 00:42:09;;;;;;;2.28;1.60;;;18.80;66.90;;;;;;5064988;28;20132;-36
2023/07/28 00:44:37;;;;;;;2.13;1.60;;;20.10;84.00;;;;;;5053466;28;20060;-32
2023/07/28 00:47:04;;;;;;;3.83;1.80;;;19.80;84.20;;;;;;5053157;28;20053;-32
2023/07/28 00:49:31;;;;;;;1.52;1.38;;;;;;;;;;5053127;28;20472;-32
2023/07/28 00:51:58;;;;;;;3.90;1.85;;;21.00;84.10;;;;;;5053316;28;20043;-32
2023/07/28 00:54:25;;;;;;;1.83;1.63;;;19.90;75.80;;;;;;5052917;28;20556;-34
2023/07/28 00:56:52;;;;;;;2.33;1.42;;;;;;;;;;5053271;28;20051;-34
2023/07/28 00:59:19;;;;;;;2.05;1.45;;;;;;;;;;5053019;28;20114;-35
2023/07/28 01:01:47;;;;;;;1.98;1.45;;;19.90;83.50;;;;;;5052034;28;20123;-32
2023/07/28 01:04:14;;;;;;;2.92;1.52;;;21.10;79.40;;;;;;5052737;28;20144;-32
2023/07/28 01:06:45;;;;;;;2.80;1.90;;;20.20;83.90;;;;;;5053159;28;20072;-32
2023/07/28 01:09:13;;;;;;;2.50;1.50;;;20.00;84.30;;;;;;5053287;28;20151;-32
2023/07/28 01:11:53;;;;;;;2.20;1.52;;;20.10;83.60;;;;;;5052879;28;20053;-32
2023/07/28 01:14:19;;;;;;;3.65;1.70;;;20.50;72.00;;;;;;5072219;28;20564;-35
2023/07/28 01:16:47;;;;;;;4.15;1.88;;;20.00;73.90;;;;;;5072914;28;20139;-33
2023/07/28 01:19:14;;;;;;;2.35;1.58;;;20.20;84.00;;;;;;5072859;28;20052;-32
2023/07/28 01:21:43;;;;;;;2.13;1.45;;;20.80;84.80;;;;;;5065059;28;20041;-32
2023/07/28 01:24:14;;;;;;;2.42;1.55;;;20.30;67.80;;;;;;5052353;28;20052;-33
2023/07/28 01:26:42;;;;;;;2.20;1.50;;;20.20;83.70;;;;;;5052756;28;20140;-32
2023/07/28 01:29:08;;;;;;;2.08;1.50;;;19.70;83.40;;;;;;5069714;28;20524;-32
2023/07/28 01:31:35;;;;;;;3.85;1.83;;;19.90;83.80;;;;;;5064571;28;20521;-32
2023/07/28 01:34:02;;;;;;;2.13;1.90;;;20.60;70.10;;;;;;5052275;28;20139;-34
2023/07/28 01:36:29;;;;;;;2.95;1.80;;;20.90;84.00;;;;;;5072059;28;20072;-33
2023/07/28 01:38:55;;;;;;;2.38;1.83;;;20.80;84.30;;;;;;5071916;28;20055;-32
2023/07/28 01:41:22;;;;;;;2.60;1.83;;;;;;;;;;5066553;28;20126;-34
2023/07/28 01:43:50;;;;;;;3.13;2.00;;;20.60;84.10;;;;;;5052023;28;20080;-31
2023/07/28 01:46:17;;;;;;;3.22;2.35;;;20.60;79.10;;;;;;5052057;28;20132;-32
2023/07/28 01:48:44;;;;;;;3.00;2.05;;;20.30;77.60;;;;;;5052273;28;20128;-32
2023/07/28 01:51:10;;;;;;;3.75;2.00;;;19.90;75.10;;;;;;5052137;28;20124;-34
2023/07/28 01:53:37;;;;;;;2.97;2.05;;;20.40;84.30;;;;;;5051995;28;20055;-32
2023/07/28 01:56:04;;;;;;;4.25;2.13;;;19.90;70.70;;;;;;5051870;28;20061;-32
2023/07/28 01:58:31;;;;;;;2.60;2.00;;;;;;;;;;5051916;28;20143;-34
2023/07/28 02:00:59;;;;;;;3.13;2.10;;;21.20;84.80;;;;;;5051894;28;20155;-32
2023/07/28 02:03:26;;;;;;;3.08;2.08;;;19.90;83.90;;;;;;5051857;28;20064;-32
2023/07/28 02:05:53;;;;;;;3.85;2.15;;;;;;;;;;5051914;28;20124;-37
2023/07/28 02:08:20;;;;;;;2.22;2.00;;;20.00;83.60;;;;;;5051614;28;20133;-32
2023/07/28 02:10:47;;;;;;;3.03;1.98;;;;;;;;;;5051481;28;20104;-35
2023/07/28 02:13:13;;;;;;;4.07;2.08;;;20.40;83.50;;;;;;5051101;28;20049;-32
2023/07/28 02:15:40;;;;;;;4.10;2.60;;;20.30;84.00;;;;;;5051785;28;20124;-31
2023/07/28 02:18:08;;;;;;;2.95;2.30;;;20.40;68.10;;;;;;5051356;28;20063;-33
2023/07/28 02:20:35;;;;;;;3.10;2.30;;;;;;;;;;5051635;28;20044;-33
2023/07/28 02:23:03;;;;;;;3.25;2.45;;;;;;;;;;5069186;28;20127;-32
2023/07/28 02:25:30;;;;;;;2.80;2.08;;;;;;;;;;5053158;28;20056;-35
2023/07/28 02:27:57;;;;;;;3.63;2.30;;;;;;;;;;5051279;28;20057;-33
2023/07/28 02:30:24;;;;;;;3.88;2.08;;;;;;;;;;5051064;28;20049;-34
2023/07/28 02:32:51;;;;;;;3.25;2.45;;;20.50;83.90;;;;;;5051217;28;20124;-32
2023/07/28 02:35:19;;;;;;;3.03;2.20;;;20.40;68.10;;;;;;5061267;28;20048;-34
2023/07/28 02:37:45;;;;;;;3.95;2.30;;;20.50;80.30;;;;;;5070595;28;20128;-32
2023/07/28 02:40:13;;;;;;;3.13;2.15;;;18.70;67.20;;;;;;5071248;28;20106;-34
2023/07/28 02:42:40;;;;;;;3.88;2.10;;;;;;;;;;5056061;28;20052;-33
2023/07/28 02:45:09;;;;;;;3.70;2.28;;;20.30;83.70;;;;;;5050795;28;20145;-32
2023/07/28 02:47:36;;;;;;;4.65;2.47;;;;;;;;;;5050967;28;20044;-35
2023/07/28 02:50:04;;;;;;;2.75;2.10;;;20.10;84.00;;;;;;5050914;28;20045;-32
2023/07/28 02:52:32;;;;;;;2.90;2.28;;;20.30;68.10;;;;;;5050597;28;20469;-33
2023/07/28 02:54:58;;;;;;;4.03;2.50;;;20.70;75.20;;;;;;5050984;28;20088;-34
2023/07/28 02:57:25;;;;;;;3.15;2.20;;;20.40;81.70;;;;;;5051135;28;20127;-32
2023/07/28 02:59:52;;;;;;;2.85;2.13;;;;;;;;;;5050874;28;20498;-32
2023/07/28 03:02:19;;;;;;;3.67;2.40;;;19.90;83.90;;;;;;5050730;28;20057;-32
2023/07/28 03:04:46;;;;;;;3.55;2.15;;;;;;;;;;5050737;28;20562;-32
2023/07/28 03:07:13;;;;;;;4.00;2.50;;;;;;;;;;5050996;28;20402;-35
2023/07/28 03:09:41;;;;;;;5.90;2.15;;;19.80;84.50;;;;;;5051043;28;20131;-32
2023/07/28 03:12:09;;;;;;;2.97;2.20;;;20.30;68.10;;;;;;5050796;28;20051;-34
2023/07/28 03:14:35;;;;;;;3.63;2.22;;;19.90;80.70;;;;;;5051042;28;20148;-32
2023/07/28 03:17:03;;;;;;;4.88;2.33;;;20.30;84.10;;;;;;5050770;28;20052;-31
2023/07/28 03:19:29;;;;;;;2.72;2.10;;;20.30;84.40;;;;;;5050398;28;20049;-32
2023/07/28 03:21:56;;;;;;;3.70;2.30;;;20.80;84.60;;;;;;5070276;28;20045;-31
2023/07/28 03:24:23;;;;;;;3.30;2.05;;;;;;;;;;5071356;28;20082;-35
2023/07/28 03:26:51;;;;;;;3.50;2.42;;;20.20;71.20;;;;;;5074879;28;20131;-32
2023/07/28 03:29:19;;;;;;;3.40;2.20;;;;;;;;;;5055626;28;20128;-33
2023/07/28 03:31:46;;;;;;;3.15;2.20;;;;;;;;;;5054445;28;20482;-36
2023/07/28 03:34:13;;;;;;;2.88;2.28;;;20.40;84.60;;;;;;5055539;28;20152;-32
2023/07/28 03:36:40;;;;;;;3.35;2.22;;;;;;;;;;5074394;28;20464;-34
2023/07/28 03:39:07;;;;;;;3.72;2.00;;;;;;;;;;5074298;28;20400;-32
2023/07/28 03:41:34;;;;;;;2.72;2.20;;;;;;;;;;5074666;28;20059;-37
2023/07/28 03:44:02;;;;;;;4.47;2.35;;;20.30;68.10;;;;;;5073543;28;20128;-33
2023/07/28 03:46:29;;;;;;;3.47;2.00;;;;;;;;;;5074746;28;20136;-34
2023/07/28 03:48:57;;;;;;;4.95;2.88;;;;;;;;;;5074889;28;20048;-36
2023/07/28 03:51:24;;;;;;;3.25;2.30;;;;;;;;;;5074574;28;20055;-36
2023/07/28 03:53:51;;;;;;;3.45;2.25;;;20.50;81.50;;;;;;5071403;28;20123;-32
2023/07/28 03:56:18;;;;;;;3.10;2.03;;;;;;;;;;5054617;28;20132;-31
2023/07/28 03:58:45;;;;;;;4.60;2.22;;;;;;;;;;5054143;28;20135;-32
2023/07/28 04:01:13;;;;;;;2.65;2.10;;;21.10;68.50;;;;;;5053909;28;20173;-32
2023/07/28 04:03:40;;;;;;;3.72;2.00;;;21.00;76.80;;;;;;5052422;28;20450;-31
2023/07/28 04:06:10;;;;;;;2.78;2.20;;;20.70;85.00;;;;;;5054258;28;20052;-33
2023/07/28 04:08:37;;;;;;;2.75;2.00;;;20.10;84.00;;;;;;5054120;28;20128;-32
2023/07/28 04:11:05;;;;;;;4.82;2.30;;;;;;;;;;5053792;28;20143;-37
2023/07/28 04:13:31;;;;;;;4.13;2.05;;;19.70;83.80;;;;;;5053871;28;20127;-38
2023/07/28 04:15:58;;;;;;;6.35;2.47;;;20.50;84.30;;;;;;5055027;28;20135;-37
2023/07/28 04:18:26;;;;;;;3.47;2.30;;;20.20;68.10;;;;;;5073745;28;20128;-34
2023/07/28 04:20:53;;;;;;;4.28;2.13;;;20.50;74.30;;;;;;5071974;28;20131;-36
2023/07/28 04:23:20;;;;;;;2.45;1.90;;;;;;;;;;5072997;28;20127;-39
2023/07/28 04:25:47;;;;;;;2.85;2.05;;;;;;;;;;5057116;28;20072;-36
2023/07/28 04:28:14;;;;;;;4.47;2.10;;;20.00;83.90;;;;;;5053490;28;20056;-35
2023/07/28 04:30:41;;;;;;;3.63;1.95;;;20.60;84.40;;;;;;5053735;28;20055;-37
2023/07/28 04:33:08;;;;;;;3.75;2.00;;;;;;;;;;5053007;28;20053;-37
2023/07/28 04:35:36;;;;;;;2.85;2.00;;;20.40;69.90;;;;;;5065609;28;20123;-36
2023/07/28 04:38:02;;;;;;;3.70;2.17;;;19.90;84.20;;;;;;5072805;28;20051;-40
2023/07/28 04:40:29;;;;;;;4.28;2.05;;;20.30;85.10;;;;;;5072410;28;20056;-39
2023/07/28 04:42:56;;;;;;;3.13;2.00;;;19.50;70.80;;;;;;5073036;28;20131;-37
2023/07/28 04:45:24;;;;;;;3.25;2.17;;;;;;;;;;5073229;28;20166;-35
2023/07/28 04:47:50;;;;;;;4.60;2.25;;;20.00;84.20;;;;;;5073133;28;20132;-38
2023/07/28 04:50:18;;;;;;;3.60;2.33;;;;;;;;;;5073277;28;20147;-36
2023/07/28 04:52:46;;;;;;;5.43;2.22;;;20.30;68.30;;;;;;5072724;28;20405;-36
2023/07/28 04:55:12;;;;;;;4.78;2.30;;;20.00;70.60;;;;;;5072785;28;20055;-38
2023/07/28 04:57:39;;;;;;;5.00;2.38;;;20.00;84.60;;;;;;5066340;28;20405;-40
2023/07/28 05:00:06;;;;;;;2.65;2.00;;;20.30;84.40;;;;;;5053226;28;20045;-39
2023/07/28 05:02:33;;;;;;;3.05;2.20;;;;;;;;;;5052836;28;20040;-37
2023/07/28 05:05:00;;;;;;;3.22;2.00;;;20.10;84.30;;;;;;5051328;28;20135;-40
2023/07/28 05:07:28;;;;;;;2.85;2.10;;;20.40;76.10;;;;;;5052664;28;20084;-35
2023/07/28 05:09:56;;;;;;;5.32;2.22;;;20.30;68.40;;;;;;5052700;28;20057;-38
2023/07/28 05:12:23;;;;;;;3.53;2.15;;;;;;;;;;5052501;28;20056;-38
2023/07/28 05:14:50;;;;;;;3.30;1.90;;;20.30;73.40;;;;;;5061041;28;20075;-39
2023/07/28 05:17:17;;;;;;;3.58;2.08;;;20.10;84.70;;;;;;5052824;28;20131;-40
2023/07/28 05:19:44;;;;;;;4.65;2.25;;;;;;;;;;5052502;28;20053;-35
2023/07/28 05:22:11;;;;;;;3.88;2.72;;;;;;;;;;5052340;28;20135;-36
2023/07/28 05:24:38;;;;;;;3.45;2.20;;;20.30;84.60;;;;;;5052380;28;20140;-39
2023/07/28 05:27:06;;;;;;;3.75;2.40;;;20.30;68.50;;;;;;5052550;28;20052;-37
2023/07/28 05:29:33;;;;;;;3.72;2.33;;;;;;;;;;5055606;28;20049;-37
2023/07/28 05:32:00;;;;;;;3.05;2.03;;;21.00;85.80;;;;;;5072049;28;20140;-37
2023/07/28 05:34:27;;;;;;;3.42;2.22;;;;;;;;;;5068990;28;20186;-35
2023/07/28 05:36:54;;;;;;;2.90;2.25;;;20.50;76.40;;;;;;5060367;28;20059;-32
2023/07/28 05:39:21;;;;;;;2.50;1.92;;;20.50;84.60;;;;;;5071823;28;20144;-33
2023/07/28 05:41:48;;;;;;;3.30;2.15;;;;;;;;;;5071777;28;20472;-39
2023/07/28 05:44:16;;;;;;;2.53;1.90;;;19.90;71.40;;;;;;5061709;28;20124;-34
2023/07/28 05:46:42;;;;;;;3.47;2.25;;;20.10;84.50;;;;;;5052103;28;20136;-33
2023/07/28 05:49:09;;;;;;;4.85;2.30;;;19.80;84.70;;;;;;5051642;28;20053;-36
2023/07/28 05:51:36;;;;;;;2.92;2.30;;;19.40;70.90;;;;;;5051759;28;20053;-34
2023/07/28 05:54:03;;;;;;;4.38;2.20;;;20.00;76.30;;;;;;5051995;28;20138;-34
2023/07/28 05:56:29;;;;;;;5.00;2.60;;;19.80;85.30;;;;;;5051973;28;20056;-34
2023/07/28 05:58:57;;;;;;;3.67;2.20;;;;;;;;;;5051660;28;20128;-35
2023/07/28 06:01:26;;;;;;;4.38;2.08;;;20.70;85.50;;;;;;5051649;28;20124;-32
2023/07/28 06:03:58;;;;;;;4.00;2.15;;;;;;;;;;5051384;28;20127;-37
2023/07/28 06:06:25;;;;;;;4.95;2.20;;;19.90;71.10;;;;;;5051583;28;20860;-34
2023/07/28 06:08:52;;;;;;;3.70;2.10;;;20.20;85.30;;;;;;5056265;28;20041;-32
2023/07/28 06:11:18;;;;;;;2.85;2.05;;;20.40;76.70;;;;;;5071607;28;20136;-33
2023/07/28 06:13:46;;;;;;;3.80;2.30;;;20.10;85.30;;;;;;5066705;28;20037;-32
2023/07/28 06:16:13;;;;;;;3.92;2.30;;;;;;;;;;5051299;28;20502;-34
2023/07/28 06:18:41;;;;;;;5.07;2.65;;;20.30;69.00;;;;;;5051510;28;20480;-32
2023/07/28 06:21:07;;;;;;;3.72;2.40;;;19.70;76.50;;;;;;5051129;28;20103;-31
2023/07/28 06:23:35;;;;;;;4.20;2.33;;;19.90;84.80;;;;;;5051096;28;20055;-31
2023/07/28 06:26:01;;;;;;;4.03;2.22;;;19.60;85.50;;;;;;5051579;28;20045;-32
2023/07/28 06:28:29;;;;;;;3.88;2.22;;;;;;;;;;5051274;28;20132;-34
2023/07/28 06:30:56;;;;;;;3.47;2.13;;;;;;;;;;5059302;28;20127;-34
2023/07/28 06:33:22;;;;;;;3.15;2.20;;;20.20;71.30;;;;;;5070479;28;20503;-33
2023/07/28 06:35:52;;;;;;;3.75;2.30;;;20.70;69.30;;;;;;5062394;28;20047;-35
2023/07/28 06:38:19;;;;;;;5.07;2.10;;;;;;;;;;5068746;28;20084;-32
2023/07/28 06:40:46;;;;;;;2.47;1.95;;;;;;;;;;5071250;28;20059;-38
2023/07/28 06:43:12;;;;;;;4.03;2.00;;;21.20;85.60;;;;;;5070918;28;20127;-32
2023/07/28 06:45:39;;;;;;;3.40;1.80;;;;;;;;;;5070868;28;20059;-36
2023/07/28 06:48:07;;;;;;;3.65;1.95;;;20.20;84.40;;;;;;5070289;28;20518;-33
2023/07/28 06:50:34;;;;;;;3.08;2.00;;;;;;;;;;5063691;28;20079;-35
2023/07/28 06:53:02;;;;;;;2.63;1.80;;;19.90;85.10;;;;;;5068563;28;20054;-31
2023/07/28 06:55:29;;;;;;;4.05;2.10;;;21.40;85.20;;;;;;5072131;28;20045;-32
2023/07/28 06:57:56;;;;;;;2.88;1.85;;;;;;;;;;5071802;28;20048;-36
2023/07/28 07:00:23;;;;;;;3.97;1.92;;;;;;;;;;5070604;28;20144;-33
2023/07/28 07:02:51;;;;;;;4.40;2.10;;;;;;;;;;5066479;28;20553;-34
2023/07/28 07:05:18;;;;;;;3.85;1.90;;;20.10;84.40;;;;;;5057566;28;20131;-31
2023/07/28 07:07:45;;;;;;;4.45;1.92;;;20.80;84.80;;;;;;5058810;28;20049;-31
2023/07/28 07:10:13;;;;;;;3.33;2.15;;;21.50;85.30;;;;;;5051964;28;20055;-31
2023/07/28 07:12:39;;;;;;;4.50;2.10;;;21.00;85.70;;;;;;5051424;28;20132;-32
2023/07/28 07:15:08;;;;;;;4.10;2.10;;;20.40;68.60;;;;;;5051828;28;20083;-36
2023/07/28 07:17:35;;;;;;;3.92;1.98;;;;;;;;;;5051942;28;20052;-34
2023/07/28 07:20:02;;;;;;;3.45;1.92;;;21.40;85.50;;;;;;5064705;28;20076;-32
2023/07/28 07:22:29;;;;;;;4.00;2.15;;;20.60;74.80;;;;;;5071654;28;20045;-35
2023/07/28 07:24:56;;;;;;;4.50;2.00;;;20.10;84.30;;;;;;5071926;28;20104;-32
2023/07/28 07:27:26;;;;;;;4.13;2.10;;;20.80;78.60;;;;;;5071664;28;20055;-35
2023/07/28 07:29:53;;;;;;;3.92;2.10;;;;;;;;;;5071604;28;20075;-36
2023/07/28 07:32:20;;;;;;;2.88;2.20;;;20.50;85.10;;;;;;5071610;28;20157;-32
2023/07/28 07:34:46;;;;;;;3.00;1.92;;;20.80;84.90;;;;;;5065286;28;21444;-31
2023/07/28 07:37:13;;;;;;;4.95;2.25;;;20.70;75.30;;;;;;5059522;28;20083;-34
2023/07/28 07:39:43;;;;;;;2.65;2.00;;;20.50;84.70;;;;;;5061452;28;20454;-33
2023/07/28 07:42:10;;;;;;;5.57;1.90;;;21.10;75.50;;;;;;5061664;28;20045;-34
2023/07/28 07:44:38;;;;;;;4.00;1.90;;;20.40;68.70;;;;;;5060328;28;20059;-38
2023/07/28 07:47:12;;;;;;;6.88;2.60;;;20.40;68.80;;;;;;5054807;28;20139;-36
2023/07/28 07:49:39;;;;;;;3.30;1.87;;;;;;;;;;4812194;28;20142;-33
2023/07/28 07:52:07;;;;;;;3.80;2.05;;;20.20;84.50;;;;;;4969456;28;20052;-32
2023/07/28 07:54:34;;;;;;;4.72;1.98;;;20.20;84.80;;;;;;4962435;28;20047;-32
2023/07/28 07:57:01;;;;;;;5.70;1.90;;;20.60;84.70;;;;;;4973731;28;20050;-32
2023/07/28 07:59:30;;;;;;;5.30;1.90;;;;;;;;;;4960178;28;20417;-34
2023/07/28 08:02:00;;;;;;;2.60;1.90;;;20.40;68.60;;;;;;4959969;28;20093;-32
2023/07/28 08:04:27;;;;;;;2.45;1.80;;;20.90;85.60;;;;;;4963828;28;20055;-32
2023/07/28 08:06:54;;;;;;;3.30;1.75;;;21.40;76.10;;;;;;4969910;28;20062;-33
2023/07/28 08:09:21;;;;;;;4.00;1.90;;;21.20;84.80;;;;;;4969663;28;20054;-32
2023/07/28 08:11:48;;;;;;;2.72;1.63;;;;;;;;;;4972199;28;20116;-34
2023/07/28 08:14:15;;;;;;;2.63;1.70;;;20.20;84.20;;;;;;4972753;28;20054;-32
2023/07/28 08:16:42;;;;;;;3.40;1.70;;;;;;;;;;4972247;28;20063;-36
2023/07/28 08:19:10;;;;;;;4.35;1.70;;;20.70;84.40;;;;;;4972719;28;20138;-32
2023/07/28 08:21:37;;;;;;;3.83;1.90;;;20.80;84.20;;;;;;4973067;28;20143;-32
2023/07/28 08:24:04;;;;;;;2.80;1.80;;;20.10;83.90;;;;;;4972836;28;20078;-32
2023/07/28 08:26:31;;;;;;;2.75;1.70;;;20.50;74.30;;;;;;4973174;28;20058;-33
2023/07/28 08:28:57;;;;;;;2.70;1.52;;;20.90;84.00;;;;;;4972645;28;20492;-32
2023/07/28 08:31:24;;;;;;;3.50;1.95;;;21.00;84.00;;;;;;4972830;28;20133;-41
2023/07/28 08:33:51;;;;;;;2.65;1.67;;;20.40;69.60;;;;;;4970715;28;20129;-39
2023/07/28 08:36:19;;;;;;;2.35;1.60;;;20.80;83.90;;;;;;4958063;28;20458;-41
2023/07/28 08:38:46;;;;;;;4.18;1.70;;;20.70;83.70;;;;;;4970348;28;20122;-39
2023/07/28 08:41:13;;;;;;;2.90;1.50;;;20.50;83.60;;;;;;4961381;28;20122;-41
2023/07/28 08:43:40;;;;;;;2.95;1.70;;;20.90;84.00;;;;;;4965649;28;20055;-41
2023/07/28 08:46:07;;;;;;;2.53;1.60;;;;;;;;;;4960851;28;20138;-38
2023/07/28 08:48:34;;;;;;;2.58;1.50;;;20.60;84.00;;;;;;4959244;28;20077;-41
2023/07/28 08:51:01;;;;;;;2.15;1.65;;;;;;;;;;4962574;28;20137;-37
2023/07/28 08:53:29;;;;;;;2.40;1.60;;;20.60;83.40;;;;;;4963250;28;20122;-40
2023/07/28 08:55:56;;;;;;;2.40;1.65;;;;;;;;;;4961968;28;20134;-39
2023/07/28 08:58:23;;;;;;;2.53;1.70;;;20.90;83.50;;;;;;4968069;28;20141;-41
2023/07/28 09:00:51;;;;;;;3.42;1.60;;;21.00;84.00;;;;;;4960965;28;20059;-41
2023/07/28 09:03:18;;;;;;;2.20;1.60;;;;;;;;;;4959748;28;20070;-37
2023/07/28 09:05:46;;;;;;;3.55;1.75;;;20.40;83.30;;;;;;4968585;28;20078;-40
2023/07/28 09:08:13;;;;;;;2.53;1.63;;;20.50;83.20;;;;;;4972220;28;20126;-41
2023/07/28 09:10:44;;;;;;;3.22;1.52;;;20.30;83.90;;;;;;4963451;28;20138;-41
2023/07/28 09:13:12;;;;;;;2.85;1.52;;;20.80;84.10;;;;;;4960965;28;20130;-40
2023/07/28 09:15:38;;;;;;;2.47;1.85;;;19.60;82.70;;;;;;4961237;28;20051;-42
2023/07/28 09:18:07;;;;;;;2.20;1.50;;;20.70;83.40;;;;;;4962070;28;20073;-41
2023/07/28 09:20:35;;;;;;;2.63;1.73;;;20.80;69.30;;;;;;4961472;28;20051;-39
2023/07/28 09:23:03;;;;;;;6.35;1.45;;;;;;;;;;4959101;28;20127;-38
2023/07/28 09:25:30;;;;;;;1.92;1.48;;;20.80;83.10;;;;;;4961517;28;20130;-41
2023/07/28 09:27:58;;;;;;;1.88;1.50;;;21.40;68.80;;;;;;4962733;28;20134;-37
2023/07/28 09:30:25;;;;;;;1.60;1.30;;;21.90;73.10;;;;;;4957710;28;20122;-40
2023/07/28 09:32:53;;;;;;;6.47;1.60;;;21.10;83.30;;;;;;4967349;28;20047;-40
2023/07/28 09:35:20;;;;;;;2.05;1.52;;;20.80;83.00;;;;;;4966505;28;20126;-41
2023/07/28 09:37:48;;;;;;;2.17;1.63;;;20.90;67.00;;;;;;4960194;28;20126;-36
2023/07/28 09:40:17;;;;;;;2.05;1.60;;;20.50;73.10;;;;;;4953496;28;20083;-40
2023/07/28 09:42:49;;;;;;;2.05;1.50;;;20.70;82.60;;;;;;4952054;28;20051;-41
2023/07/28 09:45:17;;;;;;;1.63;1.35;;;20.80;83.60;;;;;;4964443;28;20059;-40
2023/07/28 09:47:44;;;;;;;2.78;1.70;;;20.80;83.10;;;;;;4952183;28;20078;-40
2023/07/28 09:50:11;;;;;;;2.38;1.60;;;21.10;70.70;;;;;;4962036;28;20559;-38
2023/07/28 09:52:42;;;;;;;1.40;1.30;;;20.80;71.70;;;;;;4970368;28;20116;-39
2023/07/28 09:55:13;;;;;;;2.20;1.30;;;20.90;66.80;;;;;;4956631;28;20135;-36
2023/07/28 09:57:42;;;;;;;1.60;1.50;;;21.10;83.30;;;;;;4952159;28;20222;-36
2023/07/28 10:00:10;;;;;;;2.13;1.55;;;20.70;83.30;;;;;;4952410;28;20062;-40
2023/07/28 10:02:38;;;;;;;2.78;1.73;;;21.00;82.60;;;;;;4963733;28;20510;-40
2023/07/28 10:05:06;;;;;;;1.83;1.45;;;21.30;74.90;;;;;;4966501;28;20122;-40
2023/07/28 10:07:33;;;;;;;2.30;1.50;;;20.80;79.70;;;;;;4961233;28;20077;-39
2023/07/28 10:10:00;;;;;;;3.03;1.50;;;20.70;82.40;;;;;;4970904;28;20126;-40
2023/07/28 10:12:28;;;;;;;2.50;1.70;;;20.80;82.50;;;;;;4971186;28;20055;-37
2023/07/28 10:15:01;;;;;;;1.92;1.50;;;21.20;83.40;;;;;;4957166;28;20135;-39
2023/07/28 10:17:32;;;;;;;2.38;1.30;;;20.20;82.40;;;;;;4971039;28;20134;-39
2023/07/28 10:20:00;;;;;;;2.95;1.48;;;21.20;82.50;;;;;;4964984;28;20051;-41
2023/07/28 10:22:27;;;;;;;1.80;1.40;;;21.90;82.90;;;;;;4968778;28;20082;-41
2023/07/28 10:24:54;;;;;;;2.85;1.42;;;21.10;82.80;;;;;;4969736;28;20135;-41
2023/07/28 10:27:32;;;;;;;2.22;1.70;;;21.50;82.60;;;;;;4970892;28;20485;-41
2023/07/28 10:29:59;;;;;;;3.47;1.85;;;20.90;69.30;;;;;;4968679;28;20108;-39
2023/07/28 10:32:29;;;;;;;3.28;1.70;;;21.10;66.50;;;;;;4969934;28;20411;-38
2023/07/28 10:35:05;;;;;;;5.40;2.03;;;21.10;66.40;;;;;;4963646;28;20044;-34
2023/07/28 10:37:32;;;;;;;2.95;1.70;;;;;;;;;;4960066;28;20054;-41
2023/07/28 10:40:23;;;;;;;5.28;1.80;;;21.10;66.50;;;;;;4956659;28;20147;-37
2023/07/28 10:42:50;;;;;;;2.58;1.55;;;21.30;82.90;;;;;;4951972;28;20058;-41
2023/07/28 10:45:18;;;;;;;5.75;1.90;;;21.50;76.60;;;;;;4955131;28;20055;-39
2023/07/28 10:47:45;;;;;;;3.92;2.22;;;;;;;;;;4970648;28;20050;-38
2023/07/28 10:50:13;;;;;;;4.32;1.88;;;20.80;81.90;;;;;;4966697;28;20058;-40
2023/07/28 10:52:40;;;;;;;4.28;2.00;;;21.40;82.70;;;;;;4960014;28;20129;-41
2023/07/28 10:55:13;;;;;;;4.50;1.90;;;21.30;66.50;;;;;;4970645;28;20046;-38
2023/07/28 10:57:39;;;;;;;5.35;1.92;;;21.00;81.10;;;;;;4954137;28;20052;-33
2023/07/28 11:00:08;;;;;;;2.80;1.60;;;21.30;83.00;;;;;;4951356;28;20062;-32
2023/07/28 11:02:38;;;;;;;3.85;1.95;;;20.40;82.10;;;;;;4951355;28;20055;-32
2023/07/28 11:05:08;;;;;;;4.25;1.90;;;21.30;82.80;;;;;;4951346;28;20639;-33
2023/07/28 11:07:36;;;;;;;4.53;2.10;;;21.00;82.40;;;;;;4951573;28;20051;-32
2023/07/28 11:10:06;;;;;;;5.88;2.30;;;21.80;83.10;;;;;;4968958;28;20489;-32
2023/07/28 11:12:33;;;;;;;3.75;2.17;;;22.10;83.20;;;;;;4962373;28;20057;-32
2023/07/28 11:15:00;;;;;;;4.88;2.00;;;;;;;;;;4968125;28;20537;-37
2023/07/28 11:17:27;;;;;;;2.70;1.90;;;;;;;;;;4954202;28;20083;-34
2023/07/28 11:19:54;;;;;;;6.45;2.20;;;;;;;;;;4961911;28;20047;-33
2023/07/28 11:22:21;;;;;;;4.00;1.92;;;21.70;82.00;;;;;;4967912;28;20488;-32
2023/07/28 11:24:53;;;;;;;4.90;2.10;;;21.60;66.40;;;;;;4959562;28;20377;-37
2023/07/28 11:27:20;;;;;;;3.40;1.92;;;;;;;;;;4961078;28;20460;-34
2023/07/28 11:29:48;;;;;;;6.00;2.40;;;21.70;82.20;;;;;;4955038;28;20046;-33
2023/07/28 11:32:17;;;;;;;3.83;1.92;;;21.90;77.40;;;;;;4958481;28;20142;-33
2023/07/28 11:34:44;;;;;;;5.57;2.03;;;21.30;81.40;;;;;;4957503;28;20492;-32
2023/07/28 11:37:11;;;;;;;3.63;2.03;;;21.50;82.40;;;;;;4958142;28;20097;-32
2023/07/28 11:39:40;;;;;;;3.47;2.00;;;;;;;;;;4959306;28;20053;-35
2023/07/28 11:42:08;;;;;;;4.53;1.90;;;20.60;65.80;;;;;;4972033;28;20523;-35
2023/07/28 11:44:35;;;;;;;3.60;2.10;;;21.40;82.20;;;;;;4967314;28;20043;-32
2023/07/28 11:47:05;;;;;;;3.50;1.95;;;21.90;81.60;;;;;;4962528;28;20051;-32
2023/07/28 11:49:31;;;;;;;6.20;1.88;;;21.70;81.60;;;;;;4954409;28;20138;-32
2023/07/28 11:51:58;;;;;;;3.17;2.00;;;20.60;81.00;;;;;;4953732;28;20399;-32
2023/07/28 11:54:26;;;;;;;5.60;2.20;;;21.20;76.90;;;;;;4972904;28;20047;-32
2023/07/28 11:56:54;;;;;;;4.10;2.00;;;21.70;66.10;;;;;;4973277;28;20129;-35
2023/07/28 11:59:23;;;;;;;4.00;2.40;;;21.80;66.10;;;;;;4973280;28;20134;-33
2023/07/28 12:01:54;;;;;;;4.28;2.13;;;21.50;81.20;;;;;;4970029;28;20043;-32
2023/07/28 12:04:21;;;;;;;4.05;2.17;;;21.50;77.60;;;;;;4963721;28;20066;-32
2023/07/28 12:07:07;;;;;;;3.65;2.25;;;21.80;81.50;;;;;;4967552;28;20062;-33
2023/07/28 12:09:34;;;;;;;3.10;2.30;;;21.90;81.70;;;;;;4961191;28;20113;-33
2023/07/28 12:12:01;;;;;;;3.72;1.80;;;22.80;82.60;;;;;;4963858;28;20487;-32
2023/07/28 12:14:35;;;;;;;3.63;2.10;;;21.80;66.20;;;;;;4963783;28;20057;-35
2023/07/28 12:17:02;;;;;;;3.95;2.03;;;21.40;80.70;;;;;;4962137;28;20560;-32
2023/07/28 12:19:29;;;;;;;3.72;1.90;;;21.70;76.70;;;;;;4961592;28;20130;-32
2023/07/28 12:21:56;;;;;;;3.08;1.88;;;;;;;;;;4956590;28;20139;-36
2023/07/28 12:24:24;;;;;;;4.07;1.83;;;22.70;80.20;;;;;;4966665;28;20043;-33
2023/07/28 12:26:51;;;;;;;3.78;2.03;;;22.20;80.90;;;;;;4971505;28;20057;-33
2023/07/28 12:29:18;;;;;;;5.47;2.17;;;;;;;;;;4971884;28;20051;-35
2023/07/28 12:31:46;;;;;;;4.25;1.90;;;21.70;81.60;;;;;;4954702;28;20130;-32
2023/07/28 12:34:13;;;;;;;4.95;2.08;;;22.80;82.10;;;;;;4953212;28;20051;-33
2023/07/28 12:36:40;;;;;;;4.40;2.10;;;;;;;;;;4971505;28;20130;-36
2023/07/28 12:39:07;;;;;;;2.95;1.70;;;21.60;81.50;;;;;;4971499;28;20134;-32
2023/07/28 12:41:34;;;;;;;3.75;1.70;;;22.40;82.80;;;;;;4972543;28;20492;-33
2023/07/28 12:44:01;;;;;;;3.25;1.70;;;21.00;73.20;;;;;;4961157;28;20125;-33
2023/07/28 12:46:27;;;;;;;3.85;1.80;;;22.60;82.20;;;;;;4972891;28;20130;-32
2023/07/28 12:48:55;;;;;;;2.90;1.90;;;21.70;81.70;;;;;;4972740;28;20051;-32
2023/07/28 12:51:22;;;;;;;2.85;2.00;;;22.30;82.50;;;;;;4972827;28;20133;-34
2023/07/28 12:53:49;;;;;;;2.95;1.98;;;;;;;;;;4972156;28;20133;-37
2023/07/28 12:56:16;;;;;;;4.05;1.80;;;21.50;81.90;;;;;;4964641;28;20049;-39
2023/07/28 12:58:43;;;;;;;2.80;1.60;;;;;;;;;;4954542;28;20545;-36
2023/07/28 13:01:11;;;;;;;2.25;1.80;;;21.60;81.60;;;;;;4966206;28;20458;-40
2023/07/28 13:03:39;;;;;;;2.55;1.70;;;22.40;82.90;;;;;;4972090;28;20104;-40
2023/07/28 13:06:07;;;;;;;2.55;1.90;;;21.10;73.90;;;;;;4963878;28;20408;-37
2023/07/28 13:08:34;;;;;;;2.40;1.70;;;21.70;76.80;;;;;;4961133;28;20543;-38
2023/07/28 13:11:01;;;;;;;2.22;1.80;;;;;;;;;;4959984;28;20126;-38
2023/07/28 13:13:29;;;;;;;2.60;1.90;;;22.20;74.30;;;;;;4957439;28;20160;-39
2023/07/28 13:15:56;;;;;;;3.10;1.80;;;22.20;81.80;;;;;;4961185;28;20085;-40